Time;durP1;ratioP1;P1;durP2;ratioP2;P2;SDS_P1;SDS_P2;PMS_P1;PMS_P2;Temp;Humidity;BMP_temperature;BMP_pressure;BME280_temperature;BME280_humidity;BME280_pressure;Samples;Min_cycle;Max_cycle;Signal;HPM_P1;HPM_P2
2022/12/25 00:01:32;;;;;;;61.42;18.17;;;;;;;3.76;100.00;101423.00;4987524;28;20117;-79
2022/12/25 00:03:59;;;;;;;127.28;19.45;;;;;;;3.75;100.00;101424.75;4966642;28;20042;-79
2022/12/25 00:06:27;;;;;;;61.03;15.25;;;;;;;3.72;100.00;101427.22;4979740;28;20138;-78
2022/12/25 00:08:54;;;;;;;89.55;21.63;;;;;;;3.72;100.00;101408.97;4975040;28;20049;-78
2022/12/25 00:11:22;;;;;;;77.78;17.65;;;;;;;3.71;100.00;101422.84;4991163;28;20061;-79
2022/12/25 00:13:49;;;;;;;76.00;18.92;;;;;;;3.69;100.00;101420.16;4990482;28;20050;-79
2022/12/25 00:16:21;;;;;;;133.82;21.23;;;;;;;3.66;100.00;101411.31;4966800;28;20066;-79
2022/12/25 00:18:50;;;;;;;48.08;16.77;;;;;;;3.66;100.00;101412.22;4956581;28;20050;-79
2022/12/25 00:21:19;;;;;;;68.72;20.63;;;;;;;3.67;100.00;101405.31;4972115;28;20471;-79
2022/12/25 00:23:47;;;;;;;53.05;17.30;;;;;;;3.69;100.00;101411.47;4990956;28;20052;-80
2022/12/25 00:26:16;;;;;;;243.38;29.00;;;;;;;3.70;100.00;101397.59;4975543;28;20042;-79
2022/12/25 00:28:45;;;;;;;79.15;19.15;;;;;;;3.68;100.00;101386.22;4990309;28;20042;-79
2022/12/25 00:31:21;;;;;;;65.45;19.80;;;;;;;3.67;100.00;101393.16;4988773;28;20054;-78
2022/12/25 00:33:49;;;;;;;85.60;22.70;;;;;;;3.70;100.00;101392.38;4986867;28;20046;-78
2022/12/25 00:36:20;;;;;;;73.43;20.60;;;;;;;3.74;100.00;101383.84;4955990;28;20072;-79
2022/12/25 00:38:48;;;;;;;78.15;21.33;;;;;;;3.77;100.00;101389.19;4986381;28;20045;-79
2022/12/25 00:44:06;;;;;;;66.25;18.42;;;;;;;3.83;100.00;101404.19;4989422;28;20049;-79
2022/12/25 00:46:34;;;;;;;61.50;19.55;;;;;;;3.84;100.00;101401.63;4991566;28;20380;-79
2022/12/25 00:49:02;;;;;;;61.85;22.17;;;;;;;3.88;100.00;101400.94;4987598;28;20046;-78
2022/12/25 00:51:29;;;;;;;76.20;21.63;;;;;;;3.89;100.00;101400.13;4960189;28;20046;-78
2022/12/25 00:53:57;;;;;;;83.25;21.73;;;;;;;3.90;100.00;101409.69;4989655;28;20492;-79
2022/12/25 00:56:24;;;;;;;86.25;23.80;;;;;;;3.92;100.00;101414.09;4993587;28;20654;-79
2022/12/25 00:58:53;;;;;;;61.95;20.63;;;;;;;3.92;100.00;101416.72;4993091;28;20423;-79
2022/12/25 01:01:20;;;;;;;83.65;22.52;;;;;;;3.92;100.00;101409.75;4976821;28;20046;-79
2022/12/25 01:03:48;;;;;;;108.63;23.13;;;;;;;3.92;100.00;101412.38;4976345;28;20051;-78
2022/12/25 01:06:16;;;;;;;140.32;26.35;;;;;;;3.89;100.00;101415.75;4938908;28;20082;-79
2022/12/25 01:10:21;;;;;;;113.97;24.60;;;;;;;3.89;100.00;101407.03;4975440;28;20061;-79
2022/12/25 01:11:32;;;;;;;67.93;21.33;;;;;;;3.89;100.00;101409.63;5006664;28;20047;-78
2022/12/25 01:14:00;;;;;;;107.45;25.63;;;;;;;3.90;100.00;101414.91;4993829;28;20415;-79
2022/12/25 01:16:28;;;;;;;108.88;25.33;;;;;;;3.91;100.00;101407.97;4990612;28;20050;-79
2022/12/25 01:18:55;;;;;;;101.35;25.08;;;;;;;3.89;100.00;101413.16;4977020;28;20054;-79
2022/12/25 01:21:23;;;;;;;193.45;31.33;;;;;;;3.89;100.00;101397.50;4961445;28;20058;-79
2022/12/25 01:23:52;;;;;;;93.85;20.83;;;;;;;3.86;100.00;101386.94;4993680;28;20038;-78
2022/12/25 01:26:22;;;;;;;117.80;22.13;;;;;;;3.81;100.00;101395.41;4992809;28;20051;-79
2022/12/25 01:28:50;;;;;;;120.82;21.73;;;;;;;3.77;100.00;101402.22;4993777;28;20042;-79
2022/12/25 01:31:20;;;;;;;117.13;26.23;;;;;;;3.75;100.00;101408.22;4994582;28;20049;-79
2022/12/25 01:33:51;;;;;;;140.13;27.35;;;;;;;3.75;100.00;101410.81;4976045;28;20069;-78
2022/12/25 01:36:22;;;;;;;59.78;20.55;;;;;;;3.75;100.00;101416.91;4983431;28;20392;-78
2022/12/25 01:38:50;;;;;;;148.52;26.05;;;;;;;3.72;100.00;101414.19;4989065;28;20042;-81
2022/12/25 01:41:21;;;;;;;52.45;18.10;;;;;;;3.70;100.00;101418.44;4993673;28;20050;-80
2022/12/25 01:44:00;;;;;;;111.35;22.65;;;;;;;3.69;100.00;101427.97;4992058;28;20826;-80
2022/12/25 01:46:28;;;;;;;61.90;20.20;;;;;;;3.70;100.00;101444.50;4975422;28;20062;-78
2022/12/25 01:49:00;;;;;;;63.58;19.52;;;;;;;3.69;100.00;101442.75;4976128;28;20054;-79
2022/12/25 01:51:34;;;;;;;163.68;28.30;;;;;;;3.69;100.00;101446.22;4991669;28;20058;-81
2022/12/25 01:54:06;;;;;;;95.20;22.40;;;;;;;3.68;100.00;101448.78;4956491;28;20050;-78
2022/12/25 01:56:36;;;;;;;216.88;30.05;;;;;;;3.67;100.00;101439.19;4991792;28;20054;-81
2022/12/25 01:59:07;;;;;;;40.58;18.40;;;;;;;3.64;100.00;101434.72;4994713;28;20043;-80
2022/12/25 02:01:35;;;;;;;70.03;20.88;;;;;;;3.64;100.00;101433.84;4990842;28;20042;-80
2022/12/25 02:04:37;;;;;;;94.85;23.27;;;;;;;3.64;100.00;101442.53;4976285;28;20057;-80
2022/12/25 02:07:12;;;;;;;73.95;21.17;;;;;;;3.67;100.00;101434.84;4994702;28;20046;-79
2022/12/25 02:09:40;;;;;;;91.90;22.90;;;;;;;3.71;100.00;101436.75;4973203;28;20034;-79
2022/12/25 02:12:14;;;;;;;98.75;25.15;;;;;;;3.75;100.00;101435.16;4977454;28;20061;-79
2022/12/25 02:14:41;;;;;;;89.68;23.98;;;;;;;3.79;100.00;101434.44;4974809;28;20050;-79
2022/12/25 02:17:28;;;;;;;118.40;26.88;;;;;;;3.83;100.00;101436.34;4976505;28;20046;-79
2022/12/25 02:20:02;;;;;;;95.25;23.63;;;;;;;3.88;100.00;101433.94;4981289;28;20427;-79
2022/12/25 02:23:17;;;;;;;77.47;22.92;;;;;;;3.93;100.00;101435.00;4970700;28;20526;-79
2022/12/25 02:26:06;;;;;;;91.88;25.80;;;;;;;3.98;100.00;101437.81;4986512;28;20042;-80
2022/12/25 02:28:39;;;;;;;85.03;23.80;;;;;;;4.00;100.00;101430.91;4984193;28;20042;-79
2022/12/25 02:31:26;;;;;;;85.63;24.25;;;;;;;4.04;100.00;101436.31;4993872;28;20483;-80
2022/12/25 02:34:10;;;;;;;93.25;24.60;;;;;;;4.08;100.00;101427.78;4977293;28;20077;-80
2022/12/25 02:36:52;;;;;;;86.32;22.98;;;;;;;4.12;100.00;101418.38;4987894;28;20050;-80
2022/12/25 02:39:58;;;;;;;77.60;22.65;;;;;;;4.16;100.00;101420.25;4958849;28;20049;-79
2022/12/25 03:08:28;;;;;;;77.43;24.47;;;;;;;4.58;100.00;101383.53;4987664;28;20054;-79
2022/12/25 03:16:57;;;;;;;85.05;24.67;;;;;;;4.75;100.00;101388.50;4988204;28;20662;-79
2022/12/25 03:28:02;;;;;;;90.20;25.60;;;;;;;4.98;100.00;101379.72;4980252;28;20062;-79
2022/12/25 03:31:11;;;;;;;79.00;24.10;;;;;;;5.04;100.00;101377.31;4970552;28;20069;-78
2022/12/25 03:37:19;;;;;;;72.72;23.85;;;;;;;5.12;100.00;101350.56;4987128;28;20074;-79
2022/12/25 04:36:59;;;;;;;70.25;25.60;;;;;;;5.47;100.00;101300.31;4980224;28;20050;-79
2022/12/25 04:39:26;;;;;;;91.70;26.92;;;;;;;5.49;100.00;101297.78;4986428;28;20046;-79
2022/12/25 04:41:53;;;;;;;78.57;26.80;;;;;;;5.52;100.00;101297.88;4939492;28;20691;-79
2022/12/25 04:44:20;;;;;;;81.13;26.95;;;;;;;5.56;100.00;101296.25;4948627;28;20057;-79
2022/12/25 04:46:49;;;;;;;72.15;25.23;;;;;;;5.56;100.00;101312.81;4987716;28;20092;-79
2022/12/25 04:49:23;;;;;;;83.03;26.40;;;;;;;5.57;100.00;101318.91;4987912;28;20446;-79
2022/12/25 04:51:50;;;;;;;96.03;28.08;;;;;;;5.57;100.00;101327.63;4987900;28;20043;-79
2022/12/25 04:54:18;;;;;;;61.22;24.10;;;;;;;5.58;100.00;101326.81;4971797;28;20476;-79
2022/12/25 04:56:45;;;;;;;79.28;25.15;;;;;;;5.60;100.00;101329.47;4986699;28;20062;-79
2022/12/25 04:59:12;;;;;;;78.40;24.77;;;;;;;5.58;100.00;101329.44;4988883;28;20046;-78
2022/12/25 05:01:40;;;;;;;80.53;24.00;;;;;;;5.59;100.00;101328.56;4928689;28;20960;-80
2022/12/25 05:04:07;;;;;;;94.10;24.83;;;;;;;5.59;100.00;101325.09;4969125;28;20519;-78
2022/12/25 05:06:36;;;;;;;81.35;24.65;;;;;;;5.59;100.00;101318.13;4969602;28;20055;-79
2022/12/25 05:09:03;;;;;;;95.30;26.63;;;;;;;5.61;100.00;101323.41;4979655;28;20385;-79
2022/12/25 05:11:30;;;;;;;96.72;27.58;;;;;;;5.62;100.00;101331.28;4970157;28;20050;-79
2022/12/25 05:13:59;;;;;;;99.38;28.25;;;;;;;5.66;100.00;101324.44;4986462;28;20065;-78
2022/12/25 05:16:26;;;;;;;93.68;29.80;;;;;;;5.69;100.00;101324.53;4946306;28;20050;-79
2022/12/25 05:18:54;;;;;;;108.90;31.50;;;;;;;5.71;100.00;101333.31;4988035;28;20046;-78
2022/12/25 05:21:22;;;;;;;88.38;29.98;;;;;;;5.74;100.00;101322.06;4985437;28;20042;-79
2022/12/25 05:23:52;;;;;;;98.38;30.23;;;;;;;5.76;100.00;101326.47;4958908;28;20046;-78
2022/12/25 05:26:21;;;;;;;;;;;;;;;5.81;100.00;101340.59;4969730;28;20376;-79
2022/12/25 05:28:49;;;;;;;127.22;32.35;;;;;;;5.83;100.00;101336.28;4986841;28;19948;-79
2022/12/25 05:31:17;;;;;;;108.38;31.10;;;;;;;5.87;100.00;101332.03;4943141;28;20054;-79
2022/12/25 05:33:49;;;;;;;95.30;29.05;;;;;;;5.90;100.00;101320.78;4982927;28;20046;-79
2022/12/25 05:36:16;;;;;;;103.45;29.17;;;;;;;5.93;100.00;101329.59;4985126;28;20679;-79
2022/12/25 05:38:43;;;;;;;97.47;29.33;;;;;;;5.97;100.00;101313.22;4961239;28;20487;-79
2022/12/25 05:41:11;;;;;;;98.78;27.85;;;;;;;6.02;100.00;101308.97;4960738;28;20065;-79
2022/12/25 05:43:38;;;;;;;122.50;30.33;;;;;;;6.07;100.00;101310.84;4976578;28;20057;-79
2022/12/25 05:46:07;;;;;;;121.78;31.15;;;;;;;6.10;100.00;101310.94;4936291;28;20053;-79
2022/12/25 05:48:36;;;;;;;112.40;32.70;;;;;;;6.12;100.00;101317.97;4974171;28;20061;-78
2022/12/25 05:51:09;;;;;;;133.55;34.42;;;;;;;6.13;100.00;101330.25;4987722;28;20039;-79
2022/12/25 05:53:37;;;;;;;117.60;31.83;;;;;;;6.15;100.00;101322.44;4978671;28;20059;-79
2022/12/25 05:56:08;;;;;;;138.55;34.47;;;;;;;6.16;100.00;101327.72;4972015;28;20050;-78
2022/12/25 05:58:37;;;;;;;125.65;32.08;;;;;;;6.18;100.00;101327.75;4991974;28;20388;-78
2022/12/25 06:01:22;;;;;;;143.80;33.08;;;;;;;6.20;100.00;101315.59;4952539;28;20057;-78
2022/12/25 06:03:49;;;;;;;158.75;34.08;;;;;;;6.22;100.00;101320.03;4984539;28;20055;-79
2022/12/25 06:06:17;;;;;;;129.05;33.35;;;;;;;6.24;100.00;101309.63;4972748;28;20050;-78
2022/12/25 06:08:45;;;;;;;159.02;36.40;;;;;;;6.27;100.00;101316.66;4983367;28;20042;-79
2022/12/25 06:11:13;;;;;;;161.65;35.05;;;;;;;6.29;100.00;101309.72;4977608;28;20050;-79
2022/12/25 06:13:41;;;;;;;162.52;36.05;;;;;;;6.33;100.00;101320.34;4973653;28;20069;-79
2022/12/25 06:16:12;;;;;;;140.10;34.92;;;;;;;6.36;100.00;101309.06;4931422;28;20502;-79
2022/12/25 06:18:43;;;;;;;166.65;37.05;;;;;;;6.38;100.00;101307.38;4992176;28;20047;-79
2022/12/25 06:21:13;;;;;;;188.93;37.95;;;;;;;6.40;100.00;101300.44;4988595;28;20054;-78
2022/12/25 06:23:41;;;;;;;169.57;36.83;;;;;;;6.41;100.00;101299.63;4982102;28;20053;-79
2022/12/25 06:26:12;;;;;;;177.80;36.25;;;;;;;6.43;100.00;101301.41;4989344;28;20157;-79
2022/12/25 06:28:42;;;;;;;189.80;37.25;;;;;;;6.45;100.00;101314.56;4974605;28;20376;-78
2022/12/25 06:31:18;;;;;;;169.73;37.67;;;;;;;6.47;100.00;101305.00;4988625;28;20054;-79
2022/12/25 06:33:46;;;;;;;176.23;35.75;;;;;;;6.47;100.00;101299.78;4934344;28;20050;-79
2022/12/25 06:36:16;;;;;;;213.52;41.50;;;;;;;6.49;100.00;101287.63;4989009;28;20053;-79
2022/12/25 06:38:43;;;;;;;178.20;40.88;;;;;;;6.50;100.00;101288.50;4990508;28;20404;-78
2022/12/25 06:41:14;;;;;;;200.48;40.65;;;;;;;6.51;100.00;101283.31;4980874;28;20045;-79
2022/12/25 06:43:41;;;;;;;180.20;39.50;;;;;;;6.52;100.00;101285.09;4989714;28;20046;-78
2022/12/25 06:46:11;;;;;;;155.95;36.78;;;;;;;6.53;100.00;101281.59;4971802;28;20062;-79
2022/12/25 06:48:40;;;;;;;181.85;39.35;;;;;;;6.56;100.00;101302.66;4952392;28;20053;-80
2022/12/25 06:51:07;;;;;;;174.88;39.00;;;;;;;6.57;100.00;101291.31;4987850;28;20065;-79
2022/12/25 06:53:35;;;;;;;176.73;39.58;;;;;;;6.59;100.00;101289.63;4989946;28;20050;-79
2022/12/25 06:56:09;;;;;;;147.95;36.13;;;;;;;6.62;100.00;101288.84;4977958;28;20504;-78
2022/12/25 06:58:36;;;;;;;117.83;28.77;;;;;;;6.63;100.00;101277.50;4990399;28;20053;-79
2022/12/25 07:01:23;;;;;;;171.32;38.78;;;;;;;6.64;100.00;101269.69;4976627;28;20294;-79
2022/12/25 07:03:54;;;;;;;145.95;37.20;;;;;;;6.66;100.00;101277.59;4930802;28;20053;-79
2022/12/25 07:06:21;;;;;;;;;;;;;;;6.69;100.00;101279.38;4981155;28;20042;-79
2022/12/25 07:08:48;;;;;;;143.50;36.08;;;;;;;6.69;100.00;101264.59;4989123;28;19926;-79
2022/12/25 07:11:16;;;;;;;163.05;37.85;;;;;;;6.71;100.00;101264.59;4960796;28;20050;-79
2022/12/25 07:13:44;;;;;;;140.68;36.90;;;;;;;6.72;100.00;101264.63;4953586;28;20423;-79
2022/12/25 07:16:12;;;;;;;131.93;35.35;;;;;;;6.73;100.00;101274.28;4987407;28;20047;-79
2022/12/25 07:18:40;;;;;;;125.28;32.88;;;;;;;6.73;100.00;101274.28;4985435;28;20055;-78
2022/12/25 07:21:10;;;;;;;126.88;33.35;;;;;;;6.74;100.00;101280.41;4962127;28;20046;-79
2022/12/25 07:23:38;;;;;;;119.72;34.60;;;;;;;6.74;100.00;101268.19;4985936;28;20043;-78
2022/12/25 07:26:05;;;;;;;160.95;36.28;;;;;;;6.74;100.00;101262.94;4975806;28;20049;-79
2022/12/25 07:28:33;;;;;;;128.25;33.78;;;;;;;6.74;100.00;101269.94;4976949;28;20157;-79
2022/12/25 07:31:07;;;;;;;151.43;36.42;;;;;;;6.76;100.00;101281.31;4988625;28;20054;-79
2022/12/25 07:33:35;;;;;;;115.95;34.15;;;;;;;6.75;100.00;101285.69;4988604;28;20404;-78
2022/12/25 07:36:04;;;;;;;187.07;42.08;;;;;;;6.75;100.00;101271.72;4932466;28;20472;-79
2022/12/25 07:38:31;;;;;;;141.18;35.15;;;;;;;6.75;100.00;101263.84;4968323;28;20058;-79
2022/12/25 07:40:59;;;;;;;185.45;41.47;;;;;;;6.75;100.00;101267.34;4964959;28;20454;-79
2022/12/25 07:43:26;;;;;;;125.57;34.47;;;;;;;6.76;100.00;101266.47;4988298;28;20046;-78
2022/12/25 07:45:56;;;;;;;145.50;36.97;;;;;;;6.77;100.00;101267.41;4987661;28;20054;-79
2022/12/25 07:48:27;;;;;;;140.27;36.28;;;;;;;6.79;100.00;101269.19;4986512;28;20500;-78
2022/12/25 07:51:03;;;;;;;141.38;36.65;;;;;;;6.80;100.00;101268.31;4933689;28;20484;-78
2022/12/25 07:53:31;;;;;;;120.85;34.90;;;;;;;6.81;100.00;101272.72;4986729;28;20467;-79
2022/12/25 07:56:01;;;;;;;138.00;36.35;;;;;;;6.83;100.00;101268.41;4988810;28;20499;-78
2022/12/25 07:58:29;;;;;;;114.93;32.45;;;;;;;6.85;100.00;101273.69;4974925;28;20053;-79
2022/12/25 08:01:05;;;;;;;116.97;35.17;;;;;;;6.87;100.00;101274.63;4988023;28;20039;-79
2022/12/25 08:03:34;;;;;;;116.03;33.90;;;;;;;6.90;100.00;101284.28;4971816;28;20434;-79
2022/12/25 08:06:04;;;;;;;119.72;33.72;;;;;;;6.92;100.00;101279.97;4937496;28;20057;-79
2022/12/25 08:08:32;;;;;;;104.10;32.35;;;;;;;6.92;100.00;101288.72;4958875;28;20046;-78
2022/12/25 08:11:00;;;;;;;104.68;33.17;;;;;;;6.95;100.00;101282.66;4988141;28;20395;-79
2022/12/25 08:13:31;;;;;;;94.05;30.90;;;;;;;6.97;100.00;101286.22;4964097;28;20042;-79
2022/12/25 08:16:04;;;;;;;89.75;30.67;;;;;;;6.99;100.00;101293.28;4975561;28;20042;-79
2022/12/25 08:18:31;;;;;;;101.47;32.90;;;;;;;7.01;100.00;101294.22;4984330;28;20395;-78
2022/12/25 08:21:04;;;;;;;106.10;32.15;;;;;;;7.02;100.00;101306.44;4973399;28;20054;-78
2022/12/25 08:23:34;;;;;;;98.53;34.20;;;;;;;7.05;100.00;101303.03;4957840;28;20039;-79
2022/12/25 08:26:02;;;;;;;106.28;34.42;;;;;;;7.05;100.00;101286.41;4962211;28;20042;-79
2022/12/25 08:28:32;;;;;;;113.18;34.60;;;;;;;7.08;100.00;101296.97;4967528;28;20043;-80
2022/12/25 08:31:19;;;;;;;110.57;36.38;;;;;;;7.10;100.00;101279.53;4984793;28;20058;-80
2022/12/25 08:33:48;;;;;;;104.95;34.00;;;;;;;7.11;100.00;101281.34;4988498;28;20042;-81
2022/12/25 08:36:17;;;;;;;104.78;36.13;;;;;;;7.13;100.00;101292.75;4988161;28;20058;-80
2022/12/25 08:38:45;;;;;;;117.63;37.42;;;;;;;7.13;100.00;101298.84;4935645;28;20050;-80
2022/12/25 08:41:13;;;;;;;93.68;32.33;;;;;;;7.15;100.00;101306.75;4972494;28;20061;-80
2022/12/25 08:43:41;;;;;;;100.40;32.28;;;;;;;7.16;100.00;101300.66;4967428;28;20050;-80
2022/12/25 08:46:09;;;;;;;103.97;34.55;;;;;;;7.17;100.00;101316.44;4960990;28;20046;-79
2022/12/25 08:48:37;;;;;;;98.38;32.92;;;;;;;7.18;100.00;101305.09;4990244;28;20295;-80
2022/12/25 08:51:10;;;;;;;95.75;32.70;;;;;;;7.18;100.00;101293.72;4986295;28;20057;-80
2022/12/25 08:53:37;;;;;;;86.65;30.55;;;;;;;7.17;100.00;101299.81;4955378;28;20034;-80
2022/12/25 08:56:05;;;;;;;92.15;31.02;;;;;;;7.18;100.00;101304.19;4945565;28;21009;-80
2022/12/25 08:58:33;;;;;;;81.32;28.02;;;;;;;7.18;100.00;101307.72;4957186;28;20039;-80
2022/12/25 09:01:00;;;;;;;85.55;30.73;;;;;;;7.18;100.00;101297.25;4977749;28;20042;-79
2022/12/25 09:03:30;;;;;;;117.30;35.80;;;;;;;7.18;100.00;101307.72;4980251;28;20039;-80
2022/12/25 09:06:04;;;;;;;84.80;28.65;;;;;;;7.19;100.00;101313.84;4989176;28;20046;-80
2022/12/25 09:08:32;;;;;;;78.30;29.88;;;;;;;7.19;100.00;101308.59;4952211;28;20500;-80
2022/12/25 09:11:04;;;;;;;87.45;29.27;;;;;;;7.20;100.00;101299.88;4958152;28;20042;-80
2022/12/25 09:13:32;;;;;;;73.70;27.80;;;;;;;7.21;100.00;101309.53;4988628;28;20171;-78
2022/12/25 09:16:04;;;;;;;58.72;26.48;;;;;;;7.21;100.00;101318.25;4992409;28;20053;-78
2022/12/25 09:18:32;;;;;;;61.22;26.08;;;;;;;7.24;100.00;101314.84;4999431;28;20050;-78
2022/12/25 09:21:03;;;;;;;58.97;26.40;;;;;;;7.23;100.00;101302.59;4999630;28;20052;-79
2022/12/25 09:23:32;;;;;;;65.88;25.30;;;;;;;7.25;100.00;101305.25;4965248;28;20050;-78
2022/12/25 09:26:05;;;;;;;54.08;24.60;;;;;;;7.26;100.00;101321.03;4954065;28;20046;-78
2022/12/25 09:28:33;;;;;;;54.55;24.70;;;;;;;7.27;100.00;101304.41;4984206;28;20042;-77
2022/12/25 09:31:01;;;;;;;53.35;23.10;;;;;;;7.28;100.00;101308.84;4986251;28;20053;-78
2022/12/25 09:33:28;;;;;;;65.95;24.45;;;;;;;7.28;100.00;101295.72;4987206;28;20038;-77
2022/12/25 09:35:58;;;;;;;68.15;27.95;;;;;;;7.29;100.00;101286.13;4991017;28;20054;-77
2022/12/25 09:38:28;;;;;;;58.67;25.63;;;;;;;7.29;100.00;101291.34;4977575;28;20065;-77
2022/12/25 09:41:07;;;;;;;55.33;24.40;;;;;;;7.31;100.00;101300.16;4987479;28;20053;-77
2022/12/25 09:43:45;;;;;;;54.88;21.88;;;;;;;7.30;100.00;101301.88;4983123;28;20054;-77
2022/12/25 09:46:19;;;;;;;49.80;21.67;;;;;;;7.31;100.00;101290.53;4987123;28;20042;-77
2022/12/25 09:49:19;;;;;;;49.75;20.77;;;;;;;7.32;100.00;101289.69;4965645;28;20423;-77
2022/12/25 09:51:53;;;;;;;44.13;21.15;;;;;;;7.33;100.00;101288.84;4991993;28;20046;-77
2022/12/25 09:54:33;;;;;;;40.17;19.23;;;;;;;7.34;100.00;101280.13;4964056;28;20047;-77
2022/12/25 09:57:00;;;;;;;42.72;18.20;;;;;;;7.35;100.00;101281.91;4966953;28;21136;-77
2022/12/25 09:59:28;;;;;;;48.25;17.40;;;;;;;7.36;100.00;101280.16;4964339;28;20050;-78
2022/12/25 10:02:14;;;;;;;36.53;17.85;;;;;;;7.38;100.00;101273.22;4990827;28;20046;-77
2022/12/25 10:04:53;;;;;;;38.03;16.33;;;;;;;7.38;100.00;101276.72;4986070;28;20038;-78
2022/12/25 10:08:00;;;;;;;37.97;16.90;;;;;;;7.39;100.00;101294.25;4961333;28;20050;-77
2022/12/25 10:10:45;;;;;;;29.38;14.70;;;;;;;7.40;100.00;101288.13;4971840;28;20047;-77
2022/12/25 10:13:25;;;;;;;32.00;15.07;;;;;;;7.40;100.00;101264.53;4949795;28;20046;-75
2022/12/25 10:16:14;;;;;;;41.90;14.85;;;;;;;7.40;100.00;101267.16;4960786;28;20035;-78
2022/12/25 10:18:52;;;;;;;37.42;15.23;;;;;;;7.40;100.00;101250.53;4978381;28;20050;-78
2022/12/25 10:21:22;;;;;;;32.30;15.10;;;;;;;7.39;100.00;101239.19;4984144;28;20047;-76
2022/12/25 10:24:11;;;;;;;26.57;12.53;;;;;;;7.40;100.00;101238.31;4982437;28;20038;-78
2022/12/25 10:26:39;;;;;;;28.60;13.68;;;;;;;7.39;100.00;101241.81;4992489;28;20309;-77
2022/12/25 10:29:14;;;;;;;31.33;14.05;;;;;;;7.41;100.00;101244.47;4968315;28;20522;-77
2022/12/25 10:31:45;;;;;;;27.40;12.23;;;;;;;7.41;100.00;101241.84;4978475;28;20057;-77
2022/12/25 10:34:14;;;;;;;23.83;12.38;;;;;;;7.42;100.00;101231.38;4987150;28;20055;-77
2022/12/25 10:36:46;;;;;;;29.08;12.48;;;;;;;7.45;100.00;101234.91;5006294;28;20061;-77
2022/12/25 10:39:18;;;;;;;22.83;12.30;;;;;;;7.46;100.00;101244.56;4994309;28;20054;-77
2022/12/25 10:42:09;;;;;;;23.73;11.40;;;;;;;7.47;100.00;101248.97;4986665;28;20046;-77
2022/12/25 10:44:36;;;;;;;;;;;;;;;7.48;100.00;101242.84;5000772;28;20042;-77
2022/12/25 10:47:11;;;;;;;24.55;11.07;;;;;;;7.48;100.00;101248.97;4983263;28;19910;-78
2022/12/25 10:49:46;;;;;;;25.40;11.57;;;;;;;7.50;100.00;101247.25;4999654;28;20069;-77
2022/12/25 10:52:27;;;;;;;30.35;11.20;;;;;;;7.51;100.00;101240.31;4983511;28;20042;-78
2022/12/25 10:54:56;;;;;;;32.58;12.70;;;;;;;7.51;100.00;101235.94;4984831;28;20496;-78
2022/12/25 10:57:27;;;;;;;26.27;11.93;;;;;;;7.54;100.00;101229.88;5002716;28;20046;-78
2022/12/25 10:59:58;;;;;;;23.95;11.20;;;;;;;7.56;100.00;101231.69;4981730;28;20026;-77
2022/12/25 11:02:45;;;;;;;26.38;11.02;;;;;;;7.58;100.00;101231.69;4977581;28;20034;-77
2022/12/25 11:05:27;;;;;;;28.75;11.50;;;;;;;7.60;100.00;101243.13;5015304;28;20069;-78
2022/12/25 11:08:01;;;;;;;19.25;10.73;;;;;;;7.61;100.00;101243.13;5029656;28;20416;-77
2022/12/25 11:10:36;;;;;;;25.88;10.93;;;;;;;7.62;100.00;101251.91;5012678;28;20068;-77
2022/12/25 11:13:28;;;;;;;20.38;10.05;;;;;;;7.65;100.00;101248.47;4999185;28;20050;-78
2022/12/25 11:16:11;;;;;;;21.77;10.25;;;;;;;7.65;100.00;101244.09;4962351;28;20023;-79
2022/12/25 11:18:59;;;;;;;25.10;11.20;;;;;;;7.68;100.00;101228.44;5004905;28;20058;-77
2022/12/25 11:21:32;;;;;;;24.23;10.50;;;;;;;7.69;100.00;101214.44;5005981;28;20034;-79
2022/12/25 11:24:02;;;;;;;;;;;;;;;7.72;100.00;101211.03;5008084;28;20042;-78
2022/12/25 11:27:01;;;;;;;27.20;10.52;;;;;;;7.75;100.00;101188.38;5015379;28;19932;-78
2022/12/25 11:30:11;;;;;;;22.55;10.18;;;;;;;7.80;100.00;101183.19;5018139;28;20058;-77
2022/12/25 11:32:54;;;;;;;15.57;9.63;;;;;;;7.85;100.00;101170.19;5001841;28;20037;-78
2022/12/25 11:35:29;;;;;;;18.98;9.75;;;;;;;7.89;100.00;101169.38;5010555;28;20053;-78
2022/12/25 11:38:02;;;;;;;20.35;10.07;;;;;;;7.93;100.00;101165.97;5013229;28;20036;-78
2022/12/25 11:40:58;;;;;;;21.13;9.70;;;;;;;7.94;100.00;101163.38;5028930;28;20077;-78
2022/12/25 11:44:03;;;;;;;23.83;12.90;;;;;;;7.95;100.00;101162.50;4997085;28;20042;-79
2022/12/25 11:46:46;;;;;;;19.75;9.23;;;;;;;7.97;100.00;101162.53;4971845;28;20064;-78
2022/12/25 11:49:29;;;;;;;16.38;9.45;;;;;;;7.96;100.00;101152.91;5002853;28;20030;-78
2022/12/25 11:52:17;;;;;;;17.27;9.88;;;;;;;7.98;100.00;101143.31;5000613;28;20045;-77
2022/12/25 11:55:43;;;;;;;20.80;9.60;;;;;;;8.00;100.00;101152.09;4983009;28;20052;-80
2022/12/25 11:58:34;;;;;;;17.10;8.98;;;;;;;8.00;100.00;101146.84;4978442;28;20050;-77
2022/12/25 12:01:25;;;;;;;20.00;11.07;;;;;;;8.01;100.00;101140.72;4988859;28;20046;-78
2022/12/25 12:03:55;;;;;;;27.58;12.65;;;;;;;8.02;100.00;101139.88;4995528;28;20045;-77
2022/12/25 12:06:59;;;;;;;27.98;14.23;;;;;;;8.02;100.00;101134.63;4994720;28;20035;-77
2022/12/25 12:10:08;;;;;;;23.08;14.13;;;;;;;8.02;100.00;101120.63;5000193;28;20050;-77
2022/12/25 12:13:13;;;;;;;29.40;15.85;;;;;;;8.02;100.00;101118.00;4987843;28;20041;-78
2022/12/25 12:15:48;;;;;;;27.48;13.32;;;;;;;8.02;100.00;101115.41;4997749;28;20042;-77
2022/12/25 12:18:50;;;;;;;29.20;15.77;;;;;;;8.02;100.00;101118.88;4988547;28;20050;-77
2022/12/25 12:21:27;;;;;;;22.98;13.13;;;;;;;8.02;100.00;101103.16;5001469;28;20043;-78
2022/12/25 12:24:08;;;;;;;27.50;13.20;;;;;;;8.04;100.00;101098.81;4993306;28;20526;-77
2022/12/25 12:26:39;;;;;;;26.15;13.40;;;;;;;8.04;100.00;101095.31;4990173;28;20042;-77
2022/12/25 12:29:25;;;;;;;34.28;14.55;;;;;;;8.03;100.00;101093.53;5004706;28;20053;-79
2022/12/25 12:31:58;;;;;;;21.17;13.23;;;;;;;8.03;100.00;101111.91;5002486;28;20065;-77
2022/12/25 12:34:37;;;;;;;29.73;14.52;;;;;;;8.02;100.00;101112.78;4965529;28;20053;-78
2022/12/25 12:37:34;;;;;;;29.50;14.55;;;;;;;8.00;100.00;101115.34;4999098;28;20057;-78
2022/12/25 12:40:08;;;;;;;25.30;14.80;;;;;;;8.00;100.00;101110.09;5004386;28;20058;-78
2022/12/25 12:42:49;;;;;;;24.77;14.35;;;;;;;8.00;100.00;101110.09;4996219;28;20051;-78
2022/12/25 12:45:23;;;;;;;26.95;15.00;;;;;;;8.00;100.00;101103.13;5002000;28;20051;-78
2022/12/25 12:47:55;;;;;;;76.25;35.50;;;;;;;8.01;100.00;101098.75;5014293;28;20038;-77
2022/12/25 12:50:42;;;;;;;89.47;40.45;;;;;;;8.03;100.00;101088.28;5004473;28;20069;-78
2022/12/25 12:53:28;;;;;;;42.58;22.88;;;;;;;8.04;100.00;101095.31;4992930;28;20034;-78
2022/12/25 12:56:19;;;;;;;30.50;14.95;;;;;;;8.05;100.00;101097.06;4993019;28;20049;-78
2022/12/25 12:59:09;;;;;;;33.85;16.83;;;;;;;8.06;100.00;101088.34;4990737;28;20042;-78
2022/12/25 13:01:46;;;;;;;24.08;14.35;;;;;;;8.06;100.00;101097.09;4997091;28;20054;-78
2022/12/25 13:04:24;;;;;;;21.80;13.55;;;;;;;8.08;100.00;101079.63;4980204;28;20058;-78
2022/12/25 13:06:52;;;;;;;22.33;13.40;;;;;;;8.11;100.00;101077.06;5020546;28;20050;-78
2022/12/25 13:10:04;;;;;;;21.45;14.35;;;;;;;8.12;100.00;101078.81;4980435;28;20060;-77
2022/12/25 13:12:56;;;;;;;27.35;14.07;;;;;;;8.12;100.00;101076.19;4999155;28;20051;-79
2022/12/25 13:15:32;;;;;;;23.95;14.00;;;;;;;8.13;100.00;101080.59;4971849;28;20045;-78
2022/12/25 13:18:08;;;;;;;21.10;13.95;;;;;;;8.14;100.00;101076.22;4991112;28;20034;-77
2022/12/25 13:20:56;;;;;;;22.77;13.70;;;;;;;8.14;100.00;101060.47;4982668;28;20047;-78
2022/12/25 13:23:44;;;;;;;23.92;13.45;;;;;;;8.14;100.00;101058.72;5009024;28;20072;-78